sensor_id;sensor_type;location;lat;lon;timestamp;pressure;altitude;pressure_sealevel;temperature;humidity
18749;BME280;9503;53.560;10.246;2023-02-04T07:02:26;102952.06;;;-2.08;100.00
18749;BME280;9503;53.560;10.246;2023-02-04T07:04:53;102955.78;;;-2.11;100.00
18749;BME280;9503;53.560;10.246;2023-02-04T07:07:20;102965.97;;;-2.23;100.00
18749;BME280;9503;53.560;10.246;2023-02-04T07:09:46;102965.53;;;-2.07;100.00
18749;BME280;9503;53.560;10.246;2023-02-04T07:12:13;102971.69;;;-1.92;100.00
18749;BME280;9503;53.560;10.246;2023-02-04T07:14:39;102972.44;;;-1.81;100.00
18749;BME280;9503;53.560;10.246;2023-02-04T07:17:06;102974.84;;;-1.62;100.00
18749;BME280;9503;53.560;10.246;2023-02-04T07:19:34;102979.78;;;-1.57;100.00
18749;BME280;9503;53.560;10.246;2023-02-04T07:22:01;102983.31;;;-1.49;100.00
18749;BME280;9503;53.560;10.246;2023-02-04T07:24:27;102982.63;;;-1.48;100.00
18749;BME280;9503;53.560;10.246;2023-02-04T07:26:54;102987.38;;;-1.31;100.00
18749;BME280;9503;53.560;10.246;2023-02-04T07:29:21;102989.75;;;-1.00;100.00
18749;BME280;9503;53.560;10.246;2023-02-04T07:31:48;102991.75;;;-0.85;100.00
18749;BME280;9503;53.560;10.246;2023-02-04T07:34:17;102989.03;;;-0.87;100.00
18749;BME280;9503;53.560;10.246;2023-02-04T07:36:45;102990.03;;;-0.79;100.00
18749;BME280;9503;53.560;10.246;2023-02-04T07:39:12;102992.63;;;-0.72;100.00
18749;BME280;9503;53.560;10.246;2023-02-04T07:41:39;103005.41;;;-0.70;100.00
18749;BME280;9503;53.560;10.246;2023-02-04T07:44:05;102996.34;;;-0.63;100.00
18749;BME280;9503;53.560;10.246;2023-02-04T07:46:32;103004.16;;;-0.54;100.00
18749;BME280;9503;53.560;10.246;2023-02-04T07:48:59;103009.09;;;-0.48;100.00
18749;BME280;9503;53.560;10.246;2023-02-04T07:51:25;103016.31;;;-0.44;100.00
18749;BME280;9503;53.560;10.246;2023-02-04T07:53:54;103012.41;;;-0.42;100.00
18749;BME280;9503;53.560;10.246;2023-02-04T07:56:21;103017.09;;;-0.38;100.00
18749;BME280;9503;53.560;10.246;2023-02-04T07:58:47;103023.28;;;-0.16;100.00
18749;BME280;9503;53.560;10.246;2023-02-04T08:01:14;103030.09;;;-0.03;100.00
18749;BME280;9503;53.560;10.246;2023-02-04T08:03:41;103032.75;;;0.12;100.00
18749;BME280;9503;53.560;10.246;2023-02-04T08:06:07;103025.00;;;0.30;100.00
18749;BME280;9503;53.560;10.246;2023-02-04T08:08:34;103021.91;;;0.52;100.00
18749;BME280;9503;53.560;10.246;2023-02-04T08:11:02;103027.38;;;0.63;100.00
18749;BME280;9503;53.560;10.246;2023-02-04T08:13:29;103028.09;;;0.62;100.00
18749;BME280;9503;53.560;10.246;2023-02-04T08:15:55;103032.44;;;0.43;100.00
18749;BME280;9503;53.560;10.246;2023-02-04T08:18:22;103039.22;;;0.30;100.00
18749;BME280;9503;53.560;10.246;2023-02-04T08:20:49;103035.44;;;0.33;100.00
18749;BME280;9503;53.560;10.246;2023-02-04T08:23:16;103034.84;;;0.48;100.00
18749;BME280;9503;53.560;10.246;2023-02-04T08:25:42;103034.59;;;0.60;100.00
18749;BME280;9503;53.560;10.246;2023-02-04T08:28:11;103032.66;;;0.71;100.00
18749;BME280;9503;53.560;10.246;2023-02-04T08:30:37;103033.28;;;0.83;100.00
18749;BME280;9503;53.560;10.246;2023-02-04T08:33:04;103030.44;;;0.94;100.00
18749;BME280;9503;53.560;10.246;2023-02-04T08:35:31;103029.59;;;1.01;100.00
18749;BME280;9503;53.560;10.246;2023-02-04T08:37:57;103029.41;;;0.99;100.00
18749;BME280;9503;53.560;10.246;2023-02-04T08:40:27;103040.09;;;1.04;100.00
18749;BME280;9503;53.560;10.246;2023-02-04T08:42:56;103032.59;;;1.18;100.00
18749;BME280;9503;53.560;10.246;2023-02-04T08:45:24;103045.22;;;1.18;100.00
18749;BME280;9503;53.560;10.246;2023-02-04T08:47:53;103043.63;;;1.26;100.00
18749;BME280;9503;53.560;10.246;2023-02-04T08:50:20;103045.06;;;1.31;100.00
18749;BME280;9503;53.560;10.246;2023-02-04T08:52:46;103050.69;;;1.35;100.00
18749;BME280;9503;53.560;10.246;2023-02-04T08:55:13;103048.31;;;1.30;100.00
18749;BME280;9503;53.560;10.246;2023-02-04T08:57:40;103054.16;;;1.43;100.00
18749;BME280;9503;53.560;10.246;2023-02-04T09:00:08;103050.16;;;1.38;100.00
18749;BME280;9503;53.560;10.246;2023-02-04T09:02:37;103053.84;;;1.54;100.00
18749;BME280;9503;53.560;10.246;2023-02-04T09:05:04;103060.94;;;1.71;100.00
18749;BME280;9503;53.560;10.246;2023-02-04T09:07:31;103059.34;;;1.79;100.00
18749;BME280;9503;53.560;10.246;2023-02-04T09:09:57;103064.50;;;2.29;100.00
18749;BME280;9503;53.560;10.246;2023-02-04T09:12:25;103071.53;;;2.24;100.00
18749;BME280;9503;53.560;10.246;2023-02-04T09:14:55;103071.53;;;2.24;100.00
18749;BME280;9503;53.560;10.246;2023-02-04T09:17:21;103075.69;;;2.31;100.00
18749;BME280;9503;53.560;10.246;2023-02-04T09:19:49;103079.84;;;2.37;100.00
18749;BME280;9503;53.560;10.246;2023-02-04T09:22:19;103085.44;;;2.35;100.00
18749;BME280;9503;53.560;10.246;2023-02-04T09:24:45;103095.41;;;2.55;100.00
18749;BME280;9503;53.560;10.246;2023-02-04T09:27:15;103095.22;;;2.60;100.00
18749;BME280;9503;53.560;10.246;2023-02-04T09:29:45;103099.34;;;3.02;100.00
18749;BME280;9503;53.560;10.246;2023-02-04T09:32:12;103108.19;;;3.13;100.00
18749;BME280;9503;53.560;10.246;2023-02-04T09:34:41;103119.56;;;3.31;100.00
18749;BME280;9503;53.560;10.246;2023-02-04T09:37:11;103114.66;;;3.40;100.00
18749;BME280;9503;53.560;10.246;2023-02-04T09:39:37;103111.31;;;3.62;100.00
18749;BME280;9503;53.560;10.246;2023-02-04T09:42:04;103115.44;;;3.69;100.00
18749;BME280;9503;53.560;10.246;2023-02-04T09:44:32;103117.06;;;3.75;100.00
18749;BME280;9503;53.560;10.246;2023-02-04T09:46:59;103116.28;;;3.83;100.00
18749;BME280;9503;53.560;10.246;2023-02-04T09:49:27;103130.78;;;3.84;100.00
18749;BME280;9503;53.560;10.246;2023-02-04T09:51:54;103132.00;;;3.88;100.00
18749;BME280;9503;53.560;10.246;2023-02-04T09:54:23;103133.97;;;3.98;100.00
18749;BME280;9503;53.560;10.246;2023-02-04T09:56:51;103132.16;;;3.97;100.00
18749;BME280;9503;53.560;10.246;2023-02-04T09:59:19;103130.50;;;4.34;100.00
18749;BME280;9503;53.560;10.246;2023-02-04T10:01:47;103131.59;;;4.29;100.00
18749;BME280;9503;53.560;10.246;2023-02-04T10:04:18;103142.34;;;4.50;100.00
18749;BME280;9503;53.560;10.246;2023-02-04T10:06:47;103139.13;;;4.13;100.00
18749;BME280;9503;53.560;10.246;2023-02-04T10:09:15;103137.66;;;4.15;100.00
18749;BME280;9503;53.560;10.246;2023-02-04T10:11:46;103152.06;;;4.01;100.00
18749;BME280;9503;53.560;10.246;2023-02-04T10:14:15;103147.91;;;4.01;100.00
18749;BME280;9503;53.560;10.246;2023-02-04T10:16:44;103155.13;;;4.05;100.00
18749;BME280;9503;53.560;10.246;2023-02-04T10:19:15;103162.47;;;4.18;100.00
18749;BME280;9503;53.560;10.246;2023-02-04T10:21:43;103160.09;;;4.27;100.00
18749;BME280;9503;53.560;10.246;2023-02-04T10:24:15;103162.72;;;4.12;100.00
18749;BME280;9503;53.560;10.246;2023-02-04T10:26:46;103148.38;;;4.13;100.00
18749;BME280;9503;53.560;10.246;2023-02-04T10:29:15;103151.59;;;4.26;100.00
18749;BME280;9503;53.560;10.246;2023-02-04T10:31:43;103151.91;;;4.29;100.00
18749;BME280;9503;53.560;10.246;2023-02-04T10:34:13;103156.28;;;4.53;100.00
18749;BME280;9503;53.560;10.246;2023-02-04T10:36:42;103154.59;;;4.61;100.00
18749;BME280;9503;53.560;10.246;2023-02-04T10:39:14;103165.38;;;4.74;100.00
18749;BME280;9503;53.560;10.246;2023-02-04T10:41:47;103162.09;;;4.75;100.00
18749;BME280;9503;53.560;10.246;2023-02-04T10:44:15;103162.66;;;4.95;100.00
18749;BME280;9503;53.560;10.246;2023-02-04T10:46:42;103170.31;;;5.11;100.00
18749;BME280;9503;53.560;10.246;2023-02-04T10:49:17;103169.66;;;5.60;100.00
18749;BME280;9503;53.560;10.246;2023-02-04T10:51:45;103179.91;;;5.68;99.85
18749;BME280;9503;53.560;10.246;2023-02-04T10:54:12;103177.91;;;5.50;98.99
18749;BME280;9503;53.560;10.246;2023-02-04T10:57:02;103178.94;;;5.75;96.18
18749;BME280;9503;53.560;10.246;2023-02-04T10:59:32;103172.63;;;6.03;94.85
18749;BME280;9503;53.560;10.246;2023-02-04T11:02:01;103182.81;;;6.27;94.35
18749;BME280;9503;53.560;10.246;2023-02-04T11:04:37;103173.97;;;6.48;93.55
18749;BME280;9503;53.560;10.246;2023-02-04T11:07:06;103181.78;;;6.50;92.90
18749;BME280;9503;53.560;10.246;2023-02-04T11:09:34;103184.09;;;5.99;93.15
18749;BME280;9503;53.560;10.246;2023-02-04T11:12:02;103177.47;;;6.57;92.53
18749;BME280;9503;53.560;10.246;2023-02-04T11:14:29;103176.53;;;6.81;91.29
18749;BME280;9503;53.560;10.246;2023-02-04T11:16:56;103182.50;;;6.73;91.01
18749;BME280;9503;53.560;10.246;2023-02-04T11:19:34;103185.31;;;6.68;89.77
18749;BME280;9503;53.560;10.246;2023-02-04T11:22:19;103183.13;;;6.79;88.34
18749;BME280;9503;53.560;10.246;2023-02-04T11:24:47;103178.97;;;6.88;86.15
18749;BME280;9503;53.560;10.246;2023-02-04T11:27:23;103176.78;;;7.00;85.18
18749;BME280;9503;53.560;10.246;2023-02-04T11:29:51;103190.66;;;6.86;86.62
18749;BME280;9503;53.560;10.246;2023-02-04T11:32:33;103188.25;;;6.88;86.94
18749;BME280;9503;53.560;10.246;2023-02-04T11:35:22;103182.25;;;6.54;88.02
18749;BME280;9503;53.560;10.246;2023-02-04T11:37:49;103180.72;;;6.81;87.85
18749;BME280;9503;53.560;10.246;2023-02-04T11:40:25;103184.47;;;6.76;86.97
18749;BME280;9503;53.560;10.246;2023-02-04T11:43:02;103190.63;;;6.29;88.01
18749;BME280;9503;53.560;10.246;2023-02-04T11:45:34;103182.22;;;6.30;89.68
18749;BME280;9503;53.560;10.246;2023-02-04T11:48:02;103179.41;;;6.60;89.16
18749;BME280;9503;53.560;10.246;2023-02-04T11:50:31;103182.47;;;6.64;88.98
18749;BME280;9503;53.560;10.246;2023-02-04T11:52:59;103188.31;;;6.39;88.88
18749;BME280;9503;53.560;10.246;2023-02-04T11:55:27;103193.44;;;6.72;87.90
18749;BME280;9503;53.560;10.246;2023-02-04T11:57:55;103182.75;;;6.92;88.53
18749;BME280;9503;53.560;10.246;2023-02-04T12:00:25;103195.25;;;6.73;88.40
18749;BME280;9503;53.560;10.246;2023-02-04T12:02:55;103190.47;;;6.52;90.47
18749;BME280;9503;53.560;10.246;2023-02-04T12:05:34;103197.44;;;6.61;89.32
18749;BME280;9503;53.560;10.246;2023-02-04T12:08:09;103205.38;;;6.89;89.99
18749;BME280;9503;53.560;10.246;2023-02-04T12:10:36;103208.66;;;6.88;88.41
18749;BME280;9503;53.560;10.246;2023-02-04T12:13:11;103200.50;;;6.50;90.09
18749;BME280;9503;53.560;10.246;2023-02-04T12:15:39;103201.91;;;6.55;88.42
18749;BME280;9503;53.560;10.246;2023-02-04T12:18:07;103205.41;;;6.40;88.91
18749;BME280;9503;53.560;10.246;2023-02-04T12:20:34;103203.38;;;6.53;89.64
18749;BME280;9503;53.560;10.246;2023-02-04T12:23:02;103204.91;;;6.35;88.89
18749;BME280;9503;53.560;10.246;2023-02-04T12:25:28;103209.91;;;6.02;89.63
18749;BME280;9503;53.560;10.246;2023-02-04T12:27:55;103212.75;;;5.74;90.38
18749;BME280;9503;53.560;10.246;2023-02-04T12:30:24;103216.34;;;5.60;90.79
18749;BME280;9503;53.560;10.246;2023-02-04T12:32:52;103206.09;;;5.67;93.70
18749;BME280;9503;53.560;10.246;2023-02-04T12:35:19;103211.34;;;5.85;91.75
18749;BME280;9503;53.560;10.246;2023-02-04T12:37:46;103211.59;;;5.95;90.16
18749;BME280;9503;53.560;10.246;2023-02-04T12:40:14;103203.72;;;6.00;90.31
18749;BME280;9503;53.560;10.246;2023-02-04T12:42:41;103210.28;;;5.82;89.48
18749;BME280;9503;53.560;10.246;2023-02-04T12:45:08;103210.16;;;5.97;89.56
18749;BME280;9503;53.560;10.246;2023-02-04T12:47:35;103203.31;;;5.89;89.48
18749;BME280;9503;53.560;10.246;2023-02-04T12:50:04;103213.97;;;5.77;88.12
18749;BME280;9503;53.560;10.246;2023-02-04T12:52:31;103212.72;;;5.58;89.30
18749;BME280;9503;53.560;10.246;2023-02-04T12:54:57;103216.75;;;5.56;90.32
18749;BME280;9503;53.560;10.246;2023-02-04T12:57:25;103217.41;;;5.46;91.18
18749;BME280;9503;53.560;10.246;2023-02-04T12:59:52;103219.94;;;5.31;91.51
18749;BME280;9503;53.560;10.246;2023-02-04T13:02:22;103213.31;;;5.17;92.42
18749;BME280;9503;53.560;10.246;2023-02-04T13:04:48;103228.75;;;4.95;92.12
18749;BME280;9503;53.560;10.246;2023-02-04T13:07:16;103231.28;;;4.95;92.54
18749;BME280;9503;53.560;10.246;2023-02-04T13:09:43;103228.84;;;5.04;92.90
18749;BME280;9503;53.560;10.246;2023-02-04T13:12:10;103232.09;;;5.10;92.46
18749;BME280;9503;53.560;10.246;2023-02-04T13:14:37;103230.22;;;5.16;93.12
18749;BME280;9503;53.560;10.246;2023-02-04T13:17:04;103232.59;;;5.15;92.71
18749;BME280;9503;53.560;10.246;2023-02-04T13:19:31;103235.72;;;5.28;92.14
18749;BME280;9503;53.560;10.246;2023-02-04T13:21:57;103237.59;;;5.45;90.96
18749;BME280;9503;53.560;10.246;2023-02-04T13:24:26;103233.88;;;5.50;90.96
18749;BME280;9503;53.560;10.246;2023-02-04T13:26:53;103232.09;;;5.49;90.80
18749;BME280;9503;53.560;10.246;2023-02-04T13:29:19;103226.47;;;5.83;89.63
18749;BME280;9503;53.560;10.246;2023-02-04T13:31:46;103226.47;;;5.83;87.31
18749;BME280;9503;53.560;10.246;2023-02-04T13:34:12;103228.78;;;5.73;87.33
18749;BME280;9503;53.560;10.246;2023-02-04T13:36:39;103235.41;;;5.79;87.33
18749;BME280;9503;53.560;10.246;2023-02-04T13:39:07;103235.75;;;5.82;87.55
18749;BME280;9503;53.560;10.246;2023-02-04T13:41:36;103234.84;;;5.66;86.07
18749;BME280;9503;53.560;10.246;2023-02-04T13:44:02;103237.09;;;5.56;85.91
18749;BME280;9503;53.560;10.246;2023-02-04T13:46:29;103241.50;;;5.34;86.72
18749;BME280;9503;53.560;10.246;2023-02-04T13:48:56;103231.38;;;5.27;86.93
18749;BME280;9503;53.560;10.246;2023-02-04T13:51:23;103240.56;;;5.18;87.14
18749;BME280;9503;53.560;10.246;2023-02-04T13:53:49;103243.84;;;5.17;86.71
18749;BME280;9503;53.560;10.246;2023-02-04T13:56:16;103244.63;;;5.09;86.53
18749;BME280;9503;53.560;10.246;2023-02-04T13:58:44;103241.50;;;4.88;87.56
18749;BME280;9503;53.560;10.246;2023-02-04T14:01:11;103243.69;;;4.92;87.82
18749;BME280;9503;53.560;10.246;2023-02-04T14:03:39;103251.84;;;4.90;87.88
18749;BME280;9503;53.560;10.246;2023-02-04T14:06:07;103253.91;;;4.85;86.60
18749;BME280;9503;53.560;10.246;2023-02-04T14:08:34;103255.13;;;4.89;88.06
18749;BME280;9503;53.560;10.246;2023-02-04T14:11:00;103253.75;;;4.77;86.28
18749;BME280;9503;53.560;10.246;2023-02-04T14:13:27;103251.78;;;4.74;86.69
18749;BME280;9503;53.560;10.246;2023-02-04T14:15:55;103250.72;;;4.72;86.70
18749;BME280;9503;53.560;10.246;2023-02-04T14:18:22;103252.16;;;4.70;86.96
18749;BME280;9503;53.560;10.246;2023-02-04T14:20:48;103258.44;;;4.81;87.28
18749;BME280;9503;53.560;10.246;2023-02-04T14:23:15;103265.81;;;4.93;87.05
18749;BME280;9503;53.560;10.246;2023-02-04T14:25:41;103265.13;;;4.87;87.57
18749;BME280;9503;53.560;10.246;2023-02-04T14:28:08;103266.25;;;4.82;88.53
18749;BME280;9503;53.560;10.246;2023-02-04T14:30:35;103266.59;;;4.85;89.88
18749;BME280;9503;53.560;10.246;2023-02-04T14:33:03;103271.81;;;4.64;90.17
18749;BME280;9503;53.560;10.246;2023-02-04T14:35:31;103266.53;;;4.62;91.33
18749;BME280;9503;53.560;10.246;2023-02-04T14:37:58;103272.38;;;4.54;91.71
18749;BME280;9503;53.560;10.246;2023-02-04T14:40:24;103266.97;;;4.51;92.19
18749;BME280;9503;53.560;10.246;2023-02-04T14:42:51;103258.75;;;4.61;92.55
18749;BME280;9503;53.560;10.246;2023-02-04T14:45:18;103264.59;;;4.53;93.14
18749;BME280;9503;53.560;10.246;2023-02-04T14:47:44;103260.34;;;4.37;93.87
18749;BME280;9503;53.560;10.246;2023-02-04T14:50:14;103268.47;;;4.42;94.12
18749;BME280;9503;53.560;10.246;2023-02-04T14:52:41;103263.44;;;4.35;93.76
18749;BME280;9503;53.560;10.246;2023-02-04T14:55:08;103268.84;;;4.38;94.02
18749;BME280;9503;53.560;10.246;2023-02-04T14:57:36;103258.41;;;4.21;94.33
18749;BME280;9503;53.560;10.246;2023-02-04T15:00:03;103258.47;;;4.06;94.59
18749;BME280;9503;53.560;10.246;2023-02-04T15:02:30;103266.69;;;3.97;95.32
18749;BME280;9503;53.560;10.246;2023-02-04T15:04:57;103266.31;;;3.86;95.11
18749;BME280;9503;53.560;10.246;2023-02-04T15:07:25;103275.34;;;3.99;94.65
18749;BME280;9503;53.560;10.246;2023-02-04T15:09:52;103263.63;;;3.85;94.73
18749;BME280;9503;53.560;10.246;2023-02-04T15:12:18;103267.78;;;3.84;94.33
18749;BME280;9503;53.560;10.246;2023-02-04T15:14:45;103265.44;;;3.72;94.37
18749;BME280;9503;53.560;10.246;2023-02-04T15:17:11;103269.47;;;3.41;95.70
18749;BME280;9503;53.560;10.246;2023-02-04T15:19:38;103268.03;;;3.29;96.32
18749;BME280;9503;53.560;10.246;2023-02-04T15:22:05;103272.91;;;3.20;97.38
18749;BME280;9503;53.560;10.246;2023-02-04T15:24:33;103270.56;;;3.15;96.66
18749;BME280;9503;53.560;10.246;2023-02-04T15:26:59;103263.50;;;3.05;97.49
18749;BME280;9503;53.560;10.246;2023-02-04T15:29:26;103265.84;;;2.96;97.38
18749;BME280;9503;53.560;10.246;2023-02-04T15:31:52;103269.44;;;2.84;98.85
18749;BME280;9503;53.560;10.246;2023-02-04T15:34:20;103271.94;;;2.70;99.69
18749;BME280;9503;53.560;10.246;2023-02-04T15:36:47;103264.69;;;2.59;100.00
18749;BME280;9503;53.560;10.246;2023-02-04T15:39:13;103266.66;;;2.54;100.00
18749;BME280;9503;53.560;10.246;2023-02-04T15:41:41;103266.31;;;2.51;100.00
18749;BME280;9503;53.560;10.246;2023-02-04T15:44:08;103271.16;;;2.42;100.00
18749;BME280;9503;53.560;10.246;2023-02-04T15:46:35;103266.94;;;2.29;100.00
18749;BME280;9503;53.560;10.246;2023-02-04T15:49:02;103270.19;;;2.20;100.00
18749;BME280;9503;53.560;10.246;2023-02-04T15:51:38;103271.94;;;2.14;100.00
18749;BME280;9503;53.560;10.246;2023-02-04T15:54:05;103268.81;;;2.03;100.00
18749;BME280;9503;53.560;10.246;2023-02-04T15:56:32;103270.41;;;1.95;100.00
18749;BME280;9503;53.560;10.246;2023-02-04T15:59:00;103274.88;;;1.90;100.00
18749;BME280;9503;53.560;10.246;2023-02-04T16:01:26;103275.06;;;1.85;100.00
18749;BME280;9503;53.560;10.246;2023-02-04T16:03:56;103274.28;;;1.79;100.00
18749;BME280;9503;53.560;10.246;2023-02-04T16:06:23;103270.44;;;1.75;100.00
18749;BME280;9503;53.560;10.246;2023-02-04T16:08:50;103278.94;;;1.76;100.00
18749;BME280;9503;53.560;10.246;2023-02-04T16:11:16;103282.25;;;1.82;100.00
18749;BME280;9503;53.560;10.246;2023-02-04T16:13:43;103288.75;;;1.80;100.00
18749;BME280;9503;53.560;10.246;2023-02-04T16:16:11;103290.00;;;1.83;100.00
18749;BME280;9503;53.560;10.246;2023-02-04T16:18:38;103295.78;;;1.82;100.00
18749;BME280;9503;53.560;10.246;2023-02-04T16:21:04;103295.47;;;1.86;100.00
18749;BME280;9503;53.560;10.246;2023-02-04T16:23:31;103293.84;;;1.87;100.00
18749;BME280;9503;53.560;10.246;2023-02-04T16:25:58;103286.97;;;1.86;100.00
18749;BME280;9503;53.560;10.246;2023-02-04T16:28:24;103293.25;;;1.82;100.00
18749;BME280;9503;53.560;10.246;2023-02-04T16:30:51;103294.13;;;1.76;100.00
18749;BME280;9503;53.560;10.246;2023-02-04T16:33:19;103295.84;;;1.89;100.00
18749;BME280;9503;53.560;10.246;2023-02-04T16:36:00;103295.47;;;1.86;100.00
18749;BME280;9503;53.560;10.246;2023-02-04T16:38:27;103298.25;;;1.75;100.00
18749;BME280;9503;53.560;10.246;2023-02-04T16:40:54;103299.06;;;1.61;100.00
18749;BME280;9503;53.560;10.246;2023-02-04T16:43:23;103299.00;;;1.47;100.00
18749;BME280;9503;53.560;10.246;2023-02-04T16:45:50;103309.59;;;1.45;100.00
18749;BME280;9503;53.560;10.246;2023-02-04T16:48:18;103304.56;;;1.45;100.00
18749;BME280;9503;53.560;10.246;2023-02-04T16:50:45;103301.31;;;1.46;100.00
18749;BME280;9503;53.560;10.246;2023-02-04T16:53:12;103307.06;;;1.45;100.00
18749;BME280;9503;53.560;10.246;2023-02-04T16:55:41;103306.69;;;1.42;100.00
18749;BME280;9503;53.560;10.246;2023-02-04T16:58:08;103310.63;;;1.39;100.00
18749;BME280;9503;53.560;10.246;2023-02-04T17:00:35;103307.44;;;1.41;100.00
18749;BME280;9503;53.560;10.246;2023-02-04T17:03:03;103307.78;;;1.44;100.00
18749;BME280;9503;53.560;10.246;2023-02-04T17:05:31;103317.97;;;1.51;100.00
18749;BME280;9503;53.560;10.246;2023-02-04T17:07:57;103310.97;;;1.55;100.00
18749;BME280;9503;53.560;10.246;2023-02-04T17:10:24;103313.75;;;1.44;100.00
18749;BME280;9503;53.560;10.246;2023-02-04T17:13:04;103307.16;;;1.32;100.00
18749;BME280;9503;53.560;10.246;2023-02-04T17:15:31;103316.63;;;1.20;100.00
18749;BME280;9503;53.560;10.246;2023-02-04T17:17:58;103309.75;;;1.19;100.00
18749;BME280;9503;53.560;10.246;2023-02-04T17:20:24;103308.84;;;1.19;100.00
18749;BME280;9503;53.560;10.246;2023-02-04T17:22:52;103308.25;;;1.14;100.00
18749;BME280;9503;53.560;10.246;2023-02-04T17:25:20;103306.19;;;1.04;100.00
18749;BME280;9503;53.560;10.246;2023-02-04T17:27:47;103313.78;;;1.04;100.00
18749;BME280;9503;53.560;10.246;2023-02-04T17:30:16;103313.97;;;1.06;100.00
18749;BME280;9503;53.560;10.246;2023-02-04T17:32:43;103321.41;;;1.12;100.00
18749;BME280;9503;53.560;10.246;2023-02-04T17:35:10;103318.97;;;1.19;100.00
18749;BME280;9503;53.560;10.246;2023-02-04T17:37:36;103322.31;;;1.32;100.00
18749;BME280;9503;53.560;10.246;2023-02-04T17:40:06;103323.63;;;1.35;100.00
18749;BME280;9503;53.560;10.246;2023-02-04T17:42:37;103327.75;;;1.35;100.00
18749;BME280;9503;53.560;10.246;2023-02-04T17:45:04;103332.34;;;1.45;100.00
18749;BME280;9503;53.560;10.246;2023-02-04T17:47:31;103328.00;;;1.44;100.00
18749;BME280;9503;53.560;10.246;2023-02-04T17:49:58;103325.38;;;1.49;100.00
18749;BME280;9503;53.560;10.246;2023-02-04T17:52:24;103314.22;;;1.54;100.00
18749;BME280;9503;53.560;10.246;2023-02-04T17:54:51;103332.28;;;1.57;100.00
18749;BME280;9503;53.560;10.246;2023-02-04T17:57:20;103328.50;;;1.61;100.00
18749;BME280;9503;53.560;10.246;2023-02-04T17:59:47;103331.56;;;1.58;100.00
